Prince Albert Glass Field
CYPA : now visible

Airfield :











YOU CAN JOIN US ON...

 
LOGIN :

Register | Disclaimer

   EN    FR    IT 

 









Legend :    VFR   Marginal VFR   IFR   Intensive IFR   Very Intensive IFR
Visi :
Ceiling :
>= 8 km
>= 3000ft
5 to 8 km
1000 to 3000 ft
1500m to 5 km
500 to 1000 ft
800 to 1500m
200 to 500 ft
< 800m
< 200 ft
Symbols :   Thunderstorms  Fog  Heavy snow  Heavy precipitations  Wind > 20 kt






- Airport Elevation : 1405 ft
- IATA code : YPA


CYPA - Prince Albert Glass Field

CURRENT METAR :
  • 080700Z 02004KT 15SM OVC210 M21/M24 A3013 RMK CS8 SLP244

EXPIRED METARs :
  • 080600Z 35007KT 15SM OVC210 M21/M24 A3011 RMK CS8 SLP238
  • 080500Z 36007KT 15SM OVC210 M19/M23 A3009 RMK CS8 SLP230

TAF TAF CYPA
Valid from the 08 at 07:00 until the 08 at 19:00 UTC


080638Z 0807/0819 35007KT P6SM BKN200
BECMG 0807/0809 SKC
FM081300 VRB03KT P6SM SKC RMK NXT FCST BY 081300Z



MET'MAP, your aeronautical weather chart ! - Copyright ORBIFLY December 2007 - Disclaimer

ORBIFLY MET'MAP TEAM :

Programming & Development : Alexandra Zaïnal
Concept & original design : Baudouin d'Aumeries
Assistance for programming : Marc-Olivier Méhu
Technical & hardware support : Manuel Goepfert

Contact : metmap@orbifly.com




SOURCES & CREDITS :

   NOAA       Earth
Advisory